sensor_id;sensor_type;location;lat;lon;timestamp;pressure;altitude;pressure_sealevel;temperature;humidity
37170;BME280;23062;13.952;100.608;2022-07-23T00:02:27;1007.97;;;29.57;100.00
37170;BME280;23062;13.952;100.608;2022-07-23T00:07:17;1007.98;;;29.48;100.00
37170;BME280;23062;13.952;100.608;2022-07-23T00:12:07;1008.09;;;29.47;100.00
37170;BME280;23062;13.952;100.608;2022-07-23T00:16:57;1008.10;;;29.58;100.00
37170;BME280;23062;13.952;100.608;2022-07-23T00:21:46;1008.15;;;29.70;100.00
37170;BME280;23062;13.952;100.608;2022-07-23T00:26:36;1008.15;;;29.64;100.00
37170;BME280;23062;13.952;100.608;2022-07-23T00:31:26;1008.13;;;29.65;100.00
37170;BME280;23062;13.952;100.608;2022-07-23T00:36:16;1008.15;;;29.68;100.00
37170;BME280;23062;13.952;100.608;2022-07-23T00:41:06;1008.13;;;29.73;100.00
37170;BME280;23062;13.952;100.608;2022-07-23T00:45:56;1008.19;;;29.74;100.00
37170;BME280;23062;13.952;100.608;2022-07-23T00:50:46;1008.30;;;29.82;100.00
37170;BME280;23062;13.952;100.608;2022-07-23T00:55:35;1008.31;;;29.86;100.00
37170;BME280;23062;13.952;100.608;2022-07-23T01:00:25;1008.38;;;29.83;100.00
37170;BME280;23062;13.952;100.608;2022-07-23T01:05:15;1008.45;;;29.85;100.00
37170;BME280;23062;13.952;100.608;2022-07-23T01:10:07;1008.53;;;29.65;100.00
37170;BME280;23062;13.952;100.608;2022-07-23T01:14:58;1008.52;;;29.65;100.00
37170;BME280;23062;13.952;100.608;2022-07-23T01:19:49;1008.54;;;29.64;100.00
37170;BME280;23062;13.952;100.608;2022-07-23T01:24:39;1008.62;;;29.66;100.00
37170;BME280;23062;13.952;100.608;2022-07-23T01:29:29;1008.64;;;29.61;100.00
37170;BME280;23062;13.952;100.608;2022-07-23T01:34:20;1008.67;;;29.65;100.00
37170;BME280;23062;13.952;100.608;2022-07-23T01:39:10;1008.72;;;29.64;100.00
37170;BME280;23062;13.952;100.608;2022-07-23T01:43:59;1008.73;;;29.70;100.00
37170;BME280;23062;13.952;100.608;2022-07-23T01:48:50;1008.75;;;29.70;100.00
37170;BME280;23062;13.952;100.608;2022-07-23T01:53:39;1008.73;;;29.76;100.00
37170;BME280;23062;13.952;100.608;2022-07-23T01:58:30;1008.74;;;29.87;100.00
37170;BME280;23062;13.952;100.608;2022-07-23T02:03:21;1008.71;;;29.93;100.00
37170;BME280;23062;13.952;100.608;2022-07-23T02:08:13;1008.72;;;30.01;100.00
37170;BME280;23062;13.952;100.608;2022-07-23T02:13:03;1008.72;;;30.02;100.00
37170;BME280;23062;13.952;100.608;2022-07-23T02:17:54;1008.67;;;29.99;100.00
37170;BME280;23062;13.952;100.608;2022-07-23T02:22:43;1008.64;;;30.06;100.00
37170;BME280;23062;13.952;100.608;2022-07-23T02:27:33;1008.59;;;29.98;100.00
37170;BME280;23062;13.952;100.608;2022-07-23T02:32:23;1008.59;;;30.03;100.00
37170;BME280;23062;13.952;100.608;2022-07-23T02:37:13;1008.64;;;30.03;100.00
37170;BME280;23062;13.952;100.608;2022-07-23T02:42:04;1008.62;;;30.03;100.00
37170;BME280;23062;13.952;100.608;2022-07-23T02:46:55;1008.60;;;30.00;100.00
37170;BME280;23062;13.952;100.608;2022-07-23T02:51:45;1008.60;;;29.99;100.00
37170;BME280;23062;13.952;100.608;2022-07-23T02:56:36;1008.57;;;30.06;100.00
37170;BME280;23062;13.952;100.608;2022-07-23T03:01:25;1008.57;;;30.09;100.00
37170;BME280;23062;13.952;100.608;2022-07-23T03:06:15;1008.57;;;30.07;100.00
37170;BME280;23062;13.952;100.608;2022-07-23T03:11:07;1008.58;;;30.07;100.00
37170;BME280;23062;13.952;100.608;2022-07-23T03:15:58;1008.60;;;30.09;100.00
37170;BME280;23062;13.952;100.608;2022-07-23T03:20:48;1008.58;;;30.03;100.00
37170;BME280;23062;13.952;100.608;2022-07-23T03:25:37;1008.54;;;30.05;100.00
37170;BME280;23062;13.952;100.608;2022-07-23T03:30:28;1008.51;;;30.05;100.00
37170;BME280;23062;13.952;100.608;2022-07-23T03:35:17;1008.39;;;30.08;100.00
37170;BME280;23062;13.952;100.608;2022-07-23T03:40:08;1008.39;;;30.06;100.00
37170;BME280;23062;13.952;100.608;2022-07-23T03:44:57;1008.44;;;30.03;100.00
37170;BME280;23062;13.952;100.608;2022-07-23T03:49:48;1008.54;;;30.01;100.00
37170;BME280;23062;13.952;100.608;2022-07-23T03:54:39;1008.48;;;29.98;100.00
37170;BME280;23062;13.952;100.608;2022-07-23T03:59:28;1008.45;;;30.04;100.00
37170;BME280;23062;13.952;100.608;2022-07-23T04:04:18;1008.49;;;30.07;100.00
37170;BME280;23062;13.952;100.608;2022-07-23T04:09:08;1008.40;;;30.10;100.00
37170;BME280;23062;13.952;100.608;2022-07-23T04:13:58;1008.38;;;30.13;100.00
37170;BME280;23062;13.952;100.608;2022-07-23T04:18:48;1008.46;;;30.12;100.00
37170;BME280;23062;13.952;100.608;2022-07-23T04:23:38;1008.48;;;30.21;100.00
37170;BME280;23062;13.952;100.608;2022-07-23T04:28:28;1008.45;;;30.23;100.00
37170;BME280;23062;13.952;100.608;2022-07-23T04:33:18;1008.39;;;30.21;100.00
37170;BME280;23062;13.952;100.608;2022-07-23T04:38:08;1008.25;;;30.23;100.00
37170;BME280;23062;13.952;100.608;2022-07-23T04:42:58;1008.10;;;30.24;100.00
37170;BME280;23062;13.952;100.608;2022-07-23T04:47:48;1008.10;;;30.25;100.00
37170;BME280;23062;13.952;100.608;2022-07-23T04:52:38;1008.25;;;30.22;100.00
37170;BME280;23062;13.952;100.608;2022-07-23T04:57:28;1008.29;;;30.24;100.00
37170;BME280;23062;13.952;100.608;2022-07-23T05:02:17;1008.28;;;30.27;100.00
37170;BME280;23062;13.952;100.608;2022-07-23T05:07:07;1008.19;;;30.23;100.00
37170;BME280;23062;13.952;100.608;2022-07-23T05:11:57;1008.10;;;30.28;100.00
37170;BME280;23062;13.952;100.608;2022-07-23T05:16:47;1007.99;;;30.27;100.00
37170;BME280;23062;13.952;100.608;2022-07-23T05:21:37;1007.91;;;30.26;100.00
37170;BME280;23062;13.952;100.608;2022-07-23T05:26:26;1007.87;;;30.22;100.00
37170;BME280;23062;13.952;100.608;2022-07-23T05:31:16;1007.93;;;30.23;100.00
37170;BME280;23062;13.952;100.608;2022-07-23T05:36:07;1007.92;;;30.32;100.00
37170;BME280;23062;13.952;100.608;2022-07-23T05:40:58;1007.87;;;30.25;100.00
37170;BME280;23062;13.952;100.608;2022-07-23T05:45:48;1007.80;;;30.20;100.00
37170;BME280;23062;13.952;100.608;2022-07-23T05:50:38;1007.84;;;30.19;100.00
37170;BME280;23062;13.952;100.608;2022-07-23T05:55:28;1007.91;;;30.23;100.00
37170;BME280;23062;13.952;100.608;2022-07-23T06:00:20;1007.79;;;30.20;100.00
37170;BME280;23062;13.952;100.608;2022-07-23T06:05:11;1007.71;;;30.16;100.00
37170;BME280;23062;13.952;100.608;2022-07-23T06:10:02;1007.70;;;30.17;100.00
37170;BME280;23062;13.952;100.608;2022-07-23T06:14:53;1007.61;;;30.18;100.00
37170;BME280;23062;13.952;100.608;2022-07-23T06:19:44;1007.48;;;30.15;100.00
37170;BME280;23062;13.952;100.608;2022-07-23T06:24:33;1007.43;;;30.18;100.00
37170;BME280;23062;13.952;100.608;2022-07-23T06:29:25;1007.44;;;30.18;100.00
37170;BME280;23062;13.952;100.608;2022-07-23T06:34:15;1007.42;;;30.19;100.00
37170;BME280;23062;13.952;100.608;2022-07-23T06:39:04;1007.33;;;30.17;100.00
37170;BME280;23062;13.952;100.608;2022-07-23T06:43:54;1007.24;;;30.14;100.00
37170;BME280;23062;13.952;100.608;2022-07-23T06:48:44;1007.21;;;30.19;100.00
37170;BME280;23062;13.952;100.608;2022-07-23T06:53:34;1007.19;;;30.17;100.00
37170;BME280;23062;13.952;100.608;2022-07-23T06:58:23;1007.15;;;30.14;100.00
37170;BME280;23062;13.952;100.608;2022-07-23T07:03:13;1007.12;;;30.06;100.00
37170;BME280;23062;13.952;100.608;2022-07-23T07:08:03;1007.04;;;30.07;100.00
37170;BME280;23062;13.952;100.608;2022-07-23T07:12:53;1006.92;;;30.11;100.00
37170;BME280;23062;13.952;100.608;2022-07-23T07:17:43;1006.84;;;30.13;100.00
37170;BME280;23062;13.952;100.608;2022-07-23T07:22:33;1006.73;;;30.13;100.00
37170;BME280;23062;13.952;100.608;2022-07-23T07:27:22;1006.63;;;30.13;100.00
37170;BME280;23062;13.952;100.608;2022-07-23T07:32:12;1006.48;;;30.11;100.00
37170;BME280;23062;13.952;100.608;2022-07-23T07:37:02;1006.37;;;30.13;100.00
37170;BME280;23062;13.952;100.608;2022-07-23T07:41:52;1006.28;;;30.15;100.00
37170;BME280;23062;13.952;100.608;2022-07-23T07:46:44;1006.21;;;30.15;100.00
37170;BME280;23062;13.952;100.608;2022-07-23T07:51:33;1006.16;;;30.06;100.00
37170;BME280;23062;13.952;100.608;2022-07-23T07:56:23;1006.15;;;30.01;100.00
37170;BME280;23062;13.952;100.608;2022-07-23T08:01:13;1006.14;;;29.92;100.00
37170;BME280;23062;13.952;100.608;2022-07-23T08:06:03;1006.17;;;29.97;100.00
37170;BME280;23062;13.952;100.608;2022-07-23T08:10:53;1006.22;;;29.96;100.00
37170;BME280;23062;13.952;100.608;2022-07-23T08:15:44;1006.20;;;30.09;100.00
37170;BME280;23062;13.952;100.608;2022-07-23T08:20:35;1006.15;;;30.10;100.00
37170;BME280;23062;13.952;100.608;2022-07-23T08:25:33;1006.13;;;30.09;100.00
37170;BME280;23062;13.952;100.608;2022-07-23T08:30:22;1005.96;;;30.05;100.00
37170;BME280;23062;13.952;100.608;2022-07-23T08:35:12;1005.79;;;30.01;100.00
37170;BME280;23062;13.952;100.608;2022-07-23T08:40:02;1005.92;;;30.15;100.00
37170;BME280;23062;13.952;100.608;2022-07-23T08:44:55;1005.96;;;30.19;100.00
37170;BME280;23062;13.952;100.608;2022-07-23T08:49:47;1006.01;;;30.25;100.00
37170;BME280;23062;13.952;100.608;2022-07-23T08:54:38;1006.03;;;30.31;100.00
37170;BME280;23062;13.952;100.608;2022-07-23T08:59:31;1006.02;;;30.27;100.00
37170;BME280;23062;13.952;100.608;2022-07-23T09:04:21;1005.98;;;30.37;99.79
37170;BME280;23062;13.952;100.608;2022-07-23T09:09:20;1005.81;;;30.37;98.42
37170;BME280;23062;13.952;100.608;2022-07-23T09:14:10;1005.70;;;30.40;98.05
37170;BME280;23062;13.952;100.608;2022-07-23T09:19:01;1005.68;;;30.42;98.02
37170;BME280;23062;13.952;100.608;2022-07-23T09:24:06;1005.61;;;30.44;97.58
37170;BME280;23062;13.952;100.608;2022-07-23T09:28:58;1005.57;;;30.47;96.11
37170;BME280;23062;13.952;100.608;2022-07-23T09:33:47;1005.54;;;30.47;95.80
37170;BME280;23062;13.952;100.608;2022-07-23T09:38:47;1005.53;;;30.46;95.14
37170;BME280;23062;13.952;100.608;2022-07-23T09:43:35;1005.49;;;30.44;94.79
37170;BME280;23062;13.952;100.608;2022-07-23T09:48:25;1005.47;;;30.47;94.94
37170;BME280;23062;13.952;100.608;2022-07-23T09:53:27;1005.44;;;30.44;94.46
37170;BME280;23062;13.952;100.608;2022-07-23T09:58:17;1005.42;;;30.40;93.56
37170;BME280;23062;13.952;100.608;2022-07-23T10:03:09;1005.39;;;30.44;94.24
37170;BME280;23062;13.952;100.608;2022-07-23T10:08:01;1005.37;;;30.42;93.73
37170;BME280;23062;13.952;100.608;2022-07-23T10:12:54;1005.37;;;30.43;94.47
37170;BME280;23062;13.952;100.608;2022-07-23T10:17:49;1005.34;;;30.46;94.41
37170;BME280;23062;13.952;100.608;2022-07-23T10:27:58;1005.25;;;30.46;93.84
37170;BME280;23062;13.952;100.608;2022-07-23T10:37:54;1005.14;;;30.49;93.91
37170;BME280;23062;13.952;100.608;2022-07-23T10:42:40;1005.15;;;30.48;94.67
37170;BME280;23062;13.952;100.608;2022-07-23T10:47:30;1005.26;;;30.51;95.21
37170;BME280;23062;13.952;100.608;2022-07-23T10:52:28;1005.23;;;30.44;96.29
37170;BME280;23062;13.952;100.608;2022-07-23T10:57:19;1005.28;;;30.46;96.97
37170;BME280;23062;13.952;100.608;2022-07-23T11:02:22;1005.32;;;30.43;97.45
37170;BME280;23062;13.952;100.608;2022-07-23T11:07:14;1005.33;;;30.47;98.13
37170;BME280;23062;13.952;100.608;2022-07-23T11:17:22;1005.49;;;30.42;100.00
37170;BME280;23062;13.952;100.608;2022-07-23T11:22:18;1005.46;;;30.37;100.00
37170;BME280;23062;13.952;100.608;2022-07-23T11:27:04;1005.53;;;30.32;100.00
37170;BME280;23062;13.952;100.608;2022-07-23T11:31:56;1005.60;;;30.38;100.00
37170;BME280;23062;13.952;100.608;2022-07-23T11:36:50;1005.56;;;30.25;100.00
37170;BME280;23062;13.952;100.608;2022-07-23T11:41:46;1005.72;;;30.30;100.00
37170;BME280;23062;13.952;100.608;2022-07-23T11:46:35;1005.73;;;30.29;100.00
37170;BME280;23062;13.952;100.608;2022-07-23T11:51:29;1005.83;;;30.24;100.00
37170;BME280;23062;13.952;100.608;2022-07-23T11:56:19;1005.96;;;30.26;100.00
37170;BME280;23062;13.952;100.608;2022-07-23T12:01:09;1006.03;;;30.26;100.00
37170;BME280;23062;13.952;100.608;2022-07-23T12:05:59;1006.00;;;30.19;100.00
37170;BME280;23062;13.952;100.608;2022-07-23T12:10:49;1006.04;;;30.20;100.00
37170;BME280;23062;13.952;100.608;2022-07-23T12:15:41;1006.02;;;30.15;100.00
37170;BME280;23062;13.952;100.608;2022-07-23T12:20:39;1006.13;;;30.21;100.00
37170;BME280;23062;13.952;100.608;2022-07-23T12:25:31;1006.10;;;30.09;100.00
37170;BME280;23062;13.952;100.608;2022-07-23T12:30:26;1006.07;;;30.21;100.00
37170;BME280;23062;13.952;100.608;2022-07-23T12:35:16;1006.13;;;30.22;100.00
37170;BME280;23062;13.952;100.608;2022-07-23T12:45:16;1006.28;;;30.25;100.00
37170;BME280;23062;13.952;100.608;2022-07-23T12:50:29;1006.37;;;30.28;100.00
37170;BME280;23062;13.952;100.608;2022-07-23T12:55:00;1006.35;;;30.29;100.00
37170;BME280;23062;13.952;100.608;2022-07-23T12:59:50;1006.35;;;30.23;100.00
37170;BME280;23062;13.952;100.608;2022-07-23T13:04:39;1006.40;;;30.23;100.00
37170;BME280;23062;13.952;100.608;2022-07-23T13:09:30;1006.58;;;30.27;100.00
37170;BME280;23062;13.952;100.608;2022-07-23T13:14:23;1006.73;;;30.32;100.00
37170;BME280;23062;13.952;100.608;2022-07-23T13:19:13;1006.73;;;30.33;100.00
37170;BME280;23062;13.952;100.608;2022-07-23T13:24:04;1006.76;;;30.47;100.00
37170;BME280;23062;13.952;100.608;2022-07-23T13:28:54;1006.79;;;30.52;100.00
37170;BME280;23062;13.952;100.608;2022-07-23T13:33:44;1006.86;;;30.49;100.00
37170;BME280;23062;13.952;100.608;2022-07-23T13:38:34;1006.93;;;30.43;100.00
37170;BME280;23062;13.952;100.608;2022-07-23T13:43:24;1007.04;;;30.41;100.00
37170;BME280;23062;13.952;100.608;2022-07-23T13:48:15;1007.21;;;30.38;100.00
37170;BME280;23062;13.952;100.608;2022-07-23T13:53:06;1007.34;;;30.41;100.00
37170;BME280;23062;13.952;100.608;2022-07-23T13:58:01;1007.54;;;30.35;100.00
37170;BME280;23062;13.952;100.608;2022-07-23T14:02:51;1007.66;;;30.36;100.00
37170;BME280;23062;13.952;100.608;2022-07-23T14:07:41;1007.74;;;30.31;100.00
37170;BME280;23062;13.952;100.608;2022-07-23T14:12:32;1007.86;;;30.27;100.00
37170;BME280;23062;13.952;100.608;2022-07-23T14:17:22;1007.96;;;30.27;100.00
37170;BME280;23062;13.952;100.608;2022-07-23T14:22:12;1008.02;;;30.25;100.00
37170;BME280;23062;13.952;100.608;2022-07-23T14:27:03;1008.08;;;30.26;100.00
37170;BME280;23062;13.952;100.608;2022-07-23T14:31:53;1008.09;;;30.26;100.00
37170;BME280;23062;13.952;100.608;2022-07-23T14:36:42;1008.13;;;30.29;100.00
37170;BME280;23062;13.952;100.608;2022-07-23T14:41:32;1008.20;;;30.28;100.00
37170;BME280;23062;13.952;100.608;2022-07-23T14:46:22;1008.22;;;30.24;100.00
37170;BME280;23062;13.952;100.608;2022-07-23T14:51:11;1008.33;;;30.30;100.00
37170;BME280;23062;13.952;100.608;2022-07-23T14:56:01;1008.33;;;30.20;100.00
37170;BME280;23062;13.952;100.608;2022-07-23T15:00:51;1008.42;;;30.21;100.00
37170;BME280;23062;13.952;100.608;2022-07-23T15:05:42;1008.51;;;30.22;100.00
37170;BME280;23062;13.952;100.608;2022-07-23T15:10:33;1008.59;;;30.23;100.00
37170;BME280;23062;13.952;100.608;2022-07-23T15:15:23;1008.67;;;30.17;100.00
37170;BME280;23062;13.952;100.608;2022-07-23T15:20:12;1008.69;;;30.21;100.00
37170;BME280;23062;13.952;100.608;2022-07-23T15:25:03;1008.72;;;30.23;100.00
37170;BME280;23062;13.952;100.608;2022-07-23T15:29:53;1008.62;;;30.22;100.00
37170;BME280;23062;13.952;100.608;2022-07-23T15:34:44;1008.69;;;30.22;100.00
37170;BME280;23062;13.952;100.608;2022-07-23T15:39:34;1008.63;;;30.18;100.00
37170;BME280;23062;13.952;100.608;2022-07-23T15:44:24;1008.74;;;30.20;100.00
37170;BME280;23062;13.952;100.608;2022-07-23T15:49:14;1008.68;;;30.14;100.00
37170;BME280;23062;13.952;100.608;2022-07-23T15:54:04;1008.69;;;30.26;100.00
37170;BME280;23062;13.952;100.608;2022-07-23T15:58:54;1008.77;;;30.23;100.00
37170;BME280;23062;13.952;100.608;2022-07-23T16:03:44;1008.74;;;30.19;100.00
37170;BME280;23062;13.952;100.608;2022-07-23T16:08:35;1008.78;;;30.14;100.00
37170;BME280;23062;13.952;100.608;2022-07-23T16:13:26;1008.77;;;30.18;100.00
37170;BME280;23062;13.952;100.608;2022-07-23T16:18:17;1008.81;;;30.15;100.00
37170;BME280;23062;13.952;100.608;2022-07-23T16:23:07;1008.79;;;30.15;100.00
37170;BME280;23062;13.952;100.608;2022-07-23T16:27:56;1008.77;;;30.16;100.00
37170;BME280;23062;13.952;100.608;2022-07-23T16:32:46;1008.69;;;30.13;100.00
37170;BME280;23062;13.952;100.608;2022-07-23T16:37:36;1008.73;;;30.12;100.00
37170;BME280;23062;13.952;100.608;2022-07-23T16:42:26;1008.68;;;30.15;100.00
37170;BME280;23062;13.952;100.608;2022-07-23T16:47:16;1008.68;;;30.10;100.00
37170;BME280;23062;13.952;100.608;2022-07-23T16:52:09;1008.69;;;30.13;100.00
37170;BME280;23062;13.952;100.608;2022-07-23T16:57:00;1008.69;;;30.13;100.00
37170;BME280;23062;13.952;100.608;2022-07-23T17:01:49;1008.57;;;30.13;100.00
37170;BME280;23062;13.952;100.608;2022-07-23T17:06:39;1008.42;;;30.13;100.00
37170;BME280;23062;13.952;100.608;2022-07-23T17:11:29;1008.36;;;30.04;100.00
37170;BME280;23062;13.952;100.608;2022-07-23T17:16:20;1008.29;;;30.03;100.00
37170;BME280;23062;13.952;100.608;2022-07-23T17:21:10;1008.31;;;30.10;100.00
37170;BME280;23062;13.952;100.608;2022-07-23T17:26:00;1008.19;;;30.06;100.00
37170;BME280;23062;13.952;100.608;2022-07-23T17:30:50;1008.10;;;30.06;100.00
37170;BME280;23062;13.952;100.608;2022-07-23T17:35:41;1007.90;;;30.08;100.00
37170;BME280;23062;13.952;100.608;2022-07-23T17:40:31;1007.71;;;30.03;100.00
37170;BME280;23062;13.952;100.608;2022-07-23T17:45:21;1007.60;;;30.02;100.00
37170;BME280;23062;13.952;100.608;2022-07-23T17:50:12;1007.49;;;29.99;100.00
37170;BME280;23062;13.952;100.608;2022-07-23T17:55:03;1007.47;;;29.98;100.00
37170;BME280;23062;13.952;100.608;2022-07-23T17:59:55;1007.46;;;29.96;100.00
37170;BME280;23062;13.952;100.608;2022-07-23T18:04:45;1007.31;;;29.96;100.00
37170;BME280;23062;13.952;100.608;2022-07-23T18:09:35;1007.18;;;29.96;100.00
37170;BME280;23062;13.952;100.608;2022-07-23T18:14:25;1007.12;;;29.96;100.00
37170;BME280;23062;13.952;100.608;2022-07-23T18:19:14;1007.10;;;29.96;100.00
37170;BME280;23062;13.952;100.608;2022-07-23T18:24:06;1007.04;;;29.91;100.00
37170;BME280;23062;13.952;100.608;2022-07-23T18:28:56;1007.09;;;29.95;100.00
37170;BME280;23062;13.952;100.608;2022-07-23T18:33:46;1007.08;;;29.95;100.00
37170;BME280;23062;13.952;100.608;2022-07-23T18:38:36;1007.08;;;29.91;100.00
37170;BME280;23062;13.952;100.608;2022-07-23T18:43:26;1007.07;;;29.90;100.00
37170;BME280;23062;13.952;100.608;2022-07-23T18:48:16;1007.05;;;29.90;100.00
37170;BME280;23062;13.952;100.608;2022-07-23T18:53:06;1006.97;;;29.95;100.00
37170;BME280;23062;13.952;100.608;2022-07-23T18:57:56;1006.98;;;29.87;100.00
37170;BME280;23062;13.952;100.608;2022-07-23T19:02:47;1006.89;;;29.88;100.00
37170;BME280;23062;13.952;100.608;2022-07-23T19:07:36;1006.83;;;29.91;100.00
37170;BME280;23062;13.952;100.608;2022-07-23T19:12:26;1006.79;;;29.95;100.00
37170;BME280;23062;13.952;100.608;2022-07-23T19:17:16;1006.70;;;29.91;100.00
37170;BME280;23062;13.952;100.608;2022-07-23T19:22:06;1006.62;;;29.82;100.00
37170;BME280;23062;13.952;100.608;2022-07-23T19:26:57;1006.56;;;29.85;100.00
37170;BME280;23062;13.952;100.608;2022-07-23T19:31:46;1006.60;;;29.85;100.00
37170;BME280;23062;13.952;100.608;2022-07-23T19:36:36;1006.58;;;29.81;100.00
37170;BME280;23062;13.952;100.608;2022-07-23T19:41:28;1006.47;;;29.78;100.00
37170;BME280;23062;13.952;100.608;2022-07-23T19:46:18;1006.31;;;29.79;100.00
37170;BME280;23062;13.952;100.608;2022-07-23T19:51:08;1006.29;;;29.82;100.00
37170;BME280;23062;13.952;100.608;2022-07-23T19:55:58;1006.26;;;29.82;100.00
37170;BME280;23062;13.952;100.608;2022-07-23T20:00:48;1006.14;;;29.81;100.00
37170;BME280;23062;13.952;100.608;2022-07-23T20:05:38;1006.13;;;29.74;100.00
37170;BME280;23062;13.952;100.608;2022-07-23T20:10:28;1006.09;;;29.76;100.00
37170;BME280;23062;13.952;100.608;2022-07-23T20:15:18;1006.04;;;29.80;100.00
37170;BME280;23062;13.952;100.608;2022-07-23T20:20:09;1006.01;;;29.75;100.00
37170;BME280;23062;13.952;100.608;2022-07-23T20:24:59;1006.06;;;29.76;100.00
37170;BME280;23062;13.952;100.608;2022-07-23T20:29:49;1006.03;;;29.72;100.00
37170;BME280;23062;13.952;100.608;2022-07-23T20:34:39;1006.00;;;29.69;100.00
37170;BME280;23062;13.952;100.608;2022-07-23T20:39:29;1005.98;;;29.72;100.00
37170;BME280;23062;13.952;100.608;2022-07-23T20:44:19;1005.95;;;29.67;100.00
37170;BME280;23062;13.952;100.608;2022-07-23T20:49:09;1006.05;;;29.74;100.00
37170;BME280;23062;13.952;100.608;2022-07-23T20:54:01;1006.15;;;29.72;100.00
37170;BME280;23062;13.952;100.608;2022-07-23T20:58:52;1006.06;;;29.73;100.00
37170;BME280;23062;13.952;100.608;2022-07-23T21:03:42;1006.08;;;29.81;100.00
37170;BME280;23062;13.952;100.608;2022-07-23T21:08:32;1006.12;;;29.74;100.00
37170;BME280;23062;13.952;100.608;2022-07-23T21:13:22;1006.02;;;29.66;100.00
37170;BME280;23062;13.952;100.608;2022-07-23T21:18:12;1005.95;;;29.65;100.00
37170;BME280;23062;13.952;100.608;2022-07-23T21:23:03;1005.91;;;29.69;100.00
37170;BME280;23062;13.952;100.608;2022-07-23T21:27:53;1005.89;;;29.63;100.00
37170;BME280;23062;13.952;100.608;2022-07-23T21:32:43;1005.87;;;29.72;100.00
37170;BME280;23062;13.952;100.608;2022-07-23T21:37:33;1005.91;;;29.66;100.00
37170;BME280;23062;13.952;100.608;2022-07-23T21:42:23;1006.00;;;29.68;100.00
37170;BME280;23062;13.952;100.608;2022-07-23T21:47:12;1005.99;;;29.63;100.00
37170;BME280;23062;13.952;100.608;2022-07-23T21:52:02;1005.97;;;29.58;100.00
37170;BME280;23062;13.952;100.608;2022-07-23T21:56:52;1005.98;;;29.68;100.00
37170;BME280;23062;13.952;100.608;2022-07-23T22:01:42;1006.01;;;29.68;100.00
37170;BME280;23062;13.952;100.608;2022-07-23T22:06:32;1005.97;;;29.58;100.00
37170;BME280;23062;13.952;100.608;2022-07-23T22:11:22;1005.94;;;29.57;100.00
37170;BME280;23062;13.952;100.608;2022-07-23T22:16:12;1005.84;;;29.49;100.00
37170;BME280;23062;13.952;100.608;2022-07-23T22:21:02;1005.89;;;29.45;100.00
37170;BME280;23062;13.952;100.608;2022-07-23T22:25:52;1005.89;;;29.49;100.00
37170;BME280;23062;13.952;100.608;2022-07-23T22:30:44;1005.92;;;29.51;100.00
37170;BME280;23062;13.952;100.608;2022-07-23T22:35:34;1005.91;;;29.52;100.00
37170;BME280;23062;13.952;100.608;2022-07-23T22:40:26;1006.01;;;29.40;100.00
37170;BME280;23062;13.952;100.608;2022-07-23T22:45:16;1006.13;;;29.51;100.00
37170;BME280;23062;13.952;100.608;2022-07-23T22:50:07;1006.20;;;29.45;100.00
37170;BME280;23062;13.952;100.608;2022-07-23T22:54:59;1006.24;;;29.48;100.00
37170;BME280;23062;13.952;100.608;2022-07-23T22:59:50;1006.24;;;29.43;100.00
37170;BME280;23062;13.952;100.608;2022-07-23T23:04:41;1006.30;;;29.47;100.00
37170;BME280;23062;13.952;100.608;2022-07-23T23:09:31;1006.30;;;29.47;100.00
37170;BME280;23062;13.952;100.608;2022-07-23T23:14:20;1006.30;;;29.33;100.00
37170;BME280;23062;13.952;100.608;2022-07-23T23:19:10;1006.29;;;29.36;100.00
37170;BME280;23062;13.952;100.608;2022-07-23T23:24:00;1006.37;;;29.38;100.00
37170;BME280;23062;13.952;100.608;2022-07-23T23:28:50;1006.39;;;29.33;100.00
37170;BME280;23062;13.952;100.608;2022-07-23T23:33:39;1006.41;;;29.22;100.00
37170;BME280;23062;13.952;100.608;2022-07-23T23:38:28;1006.42;;;29.17;100.00
37170;BME280;23062;13.952;100.608;2022-07-23T23:43:20;1006.51;;;28.93;100.00
37170;BME280;23062;13.952;100.608;2022-07-23T23:48:09;1006.50;;;28.79;100.00
37170;BME280;23062;13.952;100.608;2022-07-23T23:52:58;1006.50;;;28.74;100.00
37170;BME280;23062;13.952;100.608;2022-07-23T23:57:50;1006.62;;;28.71;100.00
